Time;durP1;ratioP1;P1;durP2;ratioP2;P2;SDS_P1;SDS_P2;PMS_P1;PMS_P2;Temp;Humidity;BMP_temperature;BMP_pressure;BME280_temperature;BME280_humidity;BME280_pressure;Samples;Min_cycle;Max_cycle;Signal;HPM_P1;HPM_P2
2022/05/07 00:00:04;;;;;;;83.35;55.95;;;;;;;13.37;100.00;99640.06;2035778;29;20195;-70
2022/05/07 00:01:07;;;;;;;84.53;55.47;;;;;;;13.38;100.00;99647.00;2035512;29;20671;-69
2022/05/07 00:02:11;;;;;;;90.38;57.88;;;;;;;13.34;100.00;99640.66;2042378;29;20666;-69
2022/05/07 00:03:13;;;;;;;88.57;56.80;;;;;;;13.30;100.00;99645.84;2042694;29;20249;-70
2022/05/07 00:04:15;;;;;;;88.43;57.03;;;;;;;13.30;100.00;99643.16;2035616;29;20365;-70
2022/05/07 00:05:19;;;;;;;89.88;56.38;;;;;;;13.26;100.00;99645.63;2035470;29;20658;-70
2022/05/07 00:06:21;;;;;;;99.70;58.88;;;;;;;13.25;100.00;99644.06;2031280;29;20587;-69
2022/05/07 00:07:21;;;;;;;99.25;58.22;;;;;;;13.26;100.00;99645.63;2034779;29;20207;-69
2022/05/07 00:08:23;;;;;;;92.00;57.00;;;;;;;13.29;100.00;99645.06;2035130;29;20227;-70
2022/05/07 00:09:26;;;;;;;84.60;56.10;;;;;;;13.31;100.00;99646.63;2027708;29;20215;-70
2022/05/07 00:10:29;;;;;;;95.88;58.25;;;;;;;13.31;100.00;99647.44;2026159;29;20205;-70
2022/05/07 00:11:30;;;;;;;91.22;57.83;;;;;;;13.28;100.00;99640.75;2026805;29;20208;-69
2022/05/07 00:12:35;;;;;;;93.10;57.33;;;;;;;13.31;100.00;99647.44;2035107;29;20287;-69
2022/05/07 00:13:35;;;;;;;97.18;59.25;;;;;;;13.30;100.00;99651.22;2042538;29;20682;-70
2022/05/07 00:14:37;;;;;;;90.17;59.60;;;;;;;13.32;100.00;99653.59;2042652;29;20592;-70
2022/05/07 00:15:38;;;;;;;94.95;58.83;;;;;;;13.33;100.00;99647.91;2034757;29;20199;-69
2022/05/07 00:18:01;;;;;;;94.80;56.97;;;;;;;13.26;100.00;99651.00;2034788;29;20196;-70
2022/05/07 00:19:03;;;;;;;98.40;59.25;;;;;;;13.25;100.00;99645.94;2034588;29;20191;-71
2022/05/07 00:20:07;;;;;;;95.50;59.58;;;;;;;13.27;100.00;99646.41;2026914;29;20207;-70
2022/05/07 00:21:08;;;;;;;95.45;59.35;;;;;;;13.27;100.00;99644.53;2019030;29;20228;-70
2022/05/07 00:22:10;;;;;;;97.93;60.50;;;;;;;13.29;100.00;99647.72;2027106;29;20184;-69
2022/05/07 00:23:12;;;;;;;104.55;61.67;;;;;;;13.32;100.00;99649.00;2027600;29;20255;-70
2022/05/07 00:24:16;;;;;;;101.85;60.88;;;;;;;13.36;100.00;99638.47;2027631;29;20198;-71
2022/05/07 00:25:20;;;;;;;102.53;61.38;;;;;;;13.42;100.00;99643.44;2027762;29;20252;-70
2022/05/07 00:26:22;;;;;;;96.55;60.65;;;;;;;13.37;100.00;99640.84;2027609;29;20216;-70
2022/05/07 00:27:24;;;;;;;95.22;58.90;;;;;;;13.34;100.00;99646.81;2027588;29;20200;-70
2022/05/07 00:28:25;;;;;;;96.95;61.63;;;;;;;13.31;100.00;99647.44;2026886;29;20272;-71
2022/05/07 00:29:26;;;;;;;105.87;60.77;;;;;;;13.32;100.00;99643.66;2026860;29;20212;-71
2022/05/07 00:30:27;;;;;;;105.00;61.65;;;;;;;13.32;100.00;99643.66;2042275;29;20225;-70
2022/05/07 00:31:28;;;;;;;97.67;59.80;;;;;;;13.33;100.00;99642.56;2042553;29;20199;-71
2022/05/07 00:32:30;;;;;;;93.82;60.85;;;;;;;13.42;100.00;99646.13;2034662;29;20235;-70
2022/05/07 00:33:33;;;;;;;100.33;61.03;;;;;;;13.54;100.00;99645.59;2027500;29;20193;-71
2022/05/07 00:34:35;;;;;;;96.57;60.20;;;;;;;13.63;100.00;99641.09;2027692;29;20200;-70
2022/05/07 00:35:37;;;;;;;98.25;59.90;;;;;;;13.63;100.00;99637.63;2026403;29;20279;-70
2022/05/07 00:36:39;;;;;;;89.55;57.35;;;;;;;13.62;100.00;99636.03;2026614;29;20252;-70
2022/05/07 00:37:40;;;;;;;88.45;56.65;;;;;;;13.58;100.00;99642.03;2027508;29;20287;-70
2022/05/07 00:38:42;;;;;;;88.60;58.13;;;;;;;13.49;100.00;99643.81;2034451;29;20286;-70
2022/05/07 00:39:47;;;;;;;87.35;57.28;;;;;;;13.50;100.00;99648.09;2034625;29;20230;-70
2022/05/07 00:40:51;;;;;;;92.95;58.25;;;;;;;13.48;100.00;99641.44;2026807;29;20192;-70
2022/05/07 00:41:53;;;;;;;92.50;57.65;;;;;;;13.44;100.00;99641.25;2019157;29;20216;-70
2022/05/07 00:42:55;;;;;;;93.40;57.27;;;;;;;13.42;100.00;99648.00;2027043;29;20640;-70
2022/05/07 00:43:56;;;;;;;93.10;58.28;;;;;;;13.43;100.00;99639.66;2027128;29;20219;-70
2022/05/07 00:44:59;;;;;;;89.50;56.22;;;;;;;13.46;100.00;99646.28;2026998;29;20200;-71
2022/05/07 00:46:00;;;;;;;86.75;55.97;;;;;;;13.57;100.00;99637.75;2034579;29;20226;-71
2022/05/07 00:47:11;;;;;;;84.10;55.10;;;;;;;13.54;100.00;99641.03;2026442;29;20299;-70
2022/05/07 00:48:13;;;;;;;85.07;56.45;;;;;;;13.43;100.00;99639.66;2020024;29;20219;-70
2022/05/07 00:49:16;;;;;;;89.75;56.15;;;;;;;13.44;100.00;99638.56;2018905;29;20205;-71
2022/05/07 00:51:40;;;;;;;87.85;56.67;;;;;;;13.38;100.00;99637.09;2027625;29;20223;-70
2022/05/07 00:52:41;;;;;;;98.38;57.00;;;;;;;13.33;100.00;99639.09;2034852;29;20192;-71
2022/05/07 00:53:45;;;;;;;93.90;57.45;;;;;;;13.29;100.00;99639.69;2042454;29;20297;-70
2022/05/07 00:54:48;;;;;;;94.88;58.63;;;;;;;13.30;100.00;99637.81;2042355;29;20199;-70
2022/05/07 00:55:51;;;;;;;90.28;56.42;;;;;;;13.28;100.00;99634.59;2034517;29;20208;-70
2022/05/07 00:56:54;;;;;;;90.28;56.28;;;;;;;13.29;100.00;99636.19;2034705;29;20737;-70
2022/05/07 00:57:56;;;;;;;85.75;54.47;;;;;;;13.25;100.00;99633.31;2042381;29;20688;-71
2022/05/07 00:58:58;;;;;;;87.07;55.40;;;;;;;13.23;100.00;99638.19;2042350;29;20215;-70
2022/05/07 00:59:59;;;;;;;83.93;56.05;;;;;;;13.21;100.00;99632.34;2034529;29;20215;-70
2022/05/07 01:01:01;;;;;;;92.17;56.30;;;;;;;13.22;100.00;99633.16;2034432;29;20280;-71
2022/05/07 01:02:03;;;;;;;93.45;57.17;;;;;;;13.25;100.00;99640.56;2034490;29;20231;-70
2022/05/07 01:03:04;;;;;;;93.20;57.38;;;;;;;13.22;100.00;99635.81;2042287;29;20199;-71
2022/05/07 01:04:08;;;;;;;81.57;53.57;;;;;;;13.21;100.00;99637.72;2041878;29;20286;-70
2022/05/07 01:05:10;;;;;;;85.85;56.40;;;;;;;13.21;100.00;99631.56;2034230;29;20299;-69
2022/05/07 01:06:13;;;;;;;101.60;60.00;;;;;;;13.20;100.00;99630.75;2027959;29;20204;-70
2022/05/07 01:07:13;;;;;;;104.93;60.45;;;;;;;13.19;100.00;99631.00;2026764;29;20256;-70
2022/05/07 01:08:15;;;;;;;98.07;59.53;;;;;;;13.15;100.00;99632.72;2026036;29;20287;-69
2022/05/07 01:09:19;;;;;;;98.28;59.70;;;;;;;13.17;100.00;99633.19;2034357;29;20291;-70
2022/05/07 01:10:23;;;;;;;96.22;59.22;;;;;;;13.25;100.00;99635.22;2034363;29;20223;-70
2022/05/07 01:11:31;;;;;;;92.00;57.70;;;;;;;13.27;100.00;99636.50;2041951;29;20229;-70
2022/05/07 01:12:35;;;;;;;86.72;55.28;;;;;;;13.27;100.00;99633.81;2034353;29;20542;-70
2022/05/07 01:13:38;;;;;;;82.95;54.72;;;;;;;13.26;100.00;99634.13;2026493;29;20570;-71
2022/05/07 01:14:41;;;;;;;89.22;55.25;;;;;;;13.25;100.00;99638.69;2026745;29;20690;-70
2022/05/07 01:15:43;;;;;;;90.13;57.60;;;;;;;13.23;100.00;99630.16;2034349;29;20207;-70
2022/05/07 01:16:45;;;;;;;93.10;58.63;;;;;;;13.25;100.00;99637.91;2034441;29;20192;-70
2022/05/07 01:17:46;;;;;;;98.93;59.22;;;;;;;13.22;100.00;99633.16;2042104;29;20210;-70
2022/05/07 01:18:51;;;;;;;96.10;58.63;;;;;;;13.31;100.00;99642.06;2034283;29;20215;-71
2022/05/07 01:19:52;;;;;;;93.45;56.67;;;;;;;13.22;100.00;99641.19;2034363;29;20569;-70
2022/05/07 01:20:57;;;;;;;104.53;61.97;;;;;;;13.21;100.00;99636.91;2025814;29;20291;-71
2022/05/07 01:22:00;;;;;;;95.38;58.60;;;;;;;13.19;100.00;99637.19;2026857;29;20196;-71
2022/05/07 01:23:01;;;;;;;97.18;58.63;;;;;;;13.18;100.00;99638.25;2026428;29;20231;-71
2022/05/07 01:24:04;;;;;;;98.15;59.97;;;;;;;13.17;100.00;99630.53;2018743;29;20216;-70
2022/05/07 01:25:10;;;;;;;95.13;59.35;;;;;;;13.21;100.00;99631.56;2019356;29;20664;-70
2022/05/07 01:26:13;;;;;;;88.65;56.00;;;;;;;13.23;100.00;99635.53;2018757;29;20201;-71
2022/05/07 01:27:16;;;;;;;92.30;58.08;;;;;;;13.19;100.00;99628.34;2019033;29;20212;-71
2022/05/07 01:28:17;;;;;;;94.37;58.33;;;;;;;13.17;100.00;99636.69;2026653;29;20197;-70
2022/05/07 01:29:18;;;;;;;96.47;57.55;;;;;;;13.15;100.00;99632.72;2026644;29;20228;-70
2022/05/07 01:30:20;;;;;;;90.67;56.63;;;;;;;13.19;100.00;99631.00;2018785;29;20220;-71
2022/05/07 01:31:22;;;;;;;93.70;57.80;;;;;;;13.21;100.00;99632.34;2026777;29;20604;-71
2022/05/07 01:32:25;;;;;;;90.20;58.35;;;;;;;13.17;100.00;99630.53;2026347;29;20247;-71
2022/05/07 01:33:27;;;;;;;95.05;59.00;;;;;;;13.18;100.00;99635.59;2019006;29;20221;-71
2022/05/07 01:34:30;;;;;;;98.75;57.22;;;;;;;13.28;100.00;99637.28;2018785;29;20204;-70
2022/05/07 01:35:32;;;;;;;91.13;56.35;;;;;;;13.32;100.00;99632.13;2019097;29;20204;-70
2022/05/07 01:36:34;;;;;;;95.35;57.78;;;;;;;13.34;100.00;99638.78;2018473;29;20239;-71
2022/05/07 01:37:40;;;;;;;98.90;58.08;;;;;;;13.25;100.00;99632.53;2027025;29;20211;-70
2022/05/07 01:38:43;;;;;;;88.45;57.03;;;;;;;13.29;100.00;99628.16;2025977;29;20231;-70
2022/05/07 01:39:44;;;;;;;94.88;56.95;;;;;;;13.36;100.00;99639.28;2026389;29;20212;-70
2022/05/07 01:40:48;;;;;;;98.40;59.60;;;;;;;13.24;100.00;99629.06;2026356;29;20204;-71
2022/05/07 01:41:49;;;;;;;94.05;58.33;;;;;;;13.28;100.00;99629.25;2026123;29;20215;-71
2022/05/07 01:42:51;;;;;;;91.47;56.43;;;;;;;13.37;100.00;99630.13;2018689;29;20201;-70
2022/05/07 01:43:53;;;;;;;90.00;58.10;;;;;;;13.32;100.00;99627.56;2026583;29;20461;-71
2022/05/07 01:44:55;;;;;;;85.03;54.92;;;;;;;13.41;100.00;99619.63;2026287;29;20205;-71
2022/05/07 01:45:59;;;;;;;84.55;55.53;;;;;;;13.31;100.00;99628.66;2026411;29;20204;-70
2022/05/07 01:48:34;;;;;;;88.28;55.90;;;;;;;13.26;100.00;99634.13;2018267;29;20291;-70
2022/05/07 01:49:36;;;;;;;89.35;57.25;;;;;;;13.20;100.00;99624.59;2010297;29;20214;-71
2022/05/07 01:50:42;;;;;;;90.78;57.63;;;;;;;13.26;100.00;99624.19;2011953;29;20229;-70
2022/05/07 01:51:43;;;;;;;84.13;54.60;;;;;;;13.20;100.00;99624.59;2025121;29;20666;-71
2022/05/07 01:52:46;;;;;;;86.57;55.42;;;;;;;13.19;100.00;99625.66;2026427;29;20224;-71
2022/05/07 01:53:49;;;;;;;91.80;55.38;;;;;;;13.17;100.00;99619.81;2026430;29;20193;-70
2022/05/07 01:54:51;;;;;;;86.47;55.05;;;;;;;13.14;100.00;99621.22;2034199;29;20569;-71
2022/05/07 01:55:53;;;;;;;87.70;55.17;;;;;;;13.07;100.00;99620.81;2042049;29;20195;-70
2022/05/07 01:56:58;;;;;;;84.72;56.20;;;;;;;13.08;100.00;99622.41;2034060;29;20219;-71
2022/05/07 01:58:00;;;;;;;88.67;56.60;;;;;;;13.06;100.00;99618.44;2026285;29;20203;-71
2022/05/07 01:59:01;;;;;;;90.43;57.60;;;;;;;13.05;100.00;99623.00;2026395;29;20204;-70
2022/05/07 02:00:06;;;;;;;83.87;56.63;;;;;;;13.08;100.00;99624.28;2026273;29;20296;-71
2022/05/07 02:01:13;;;;;;;86.97;57.92;;;;;;;13.02;100.00;99624.38;2034284;29;20180;-70
2022/05/07 02:02:16;;;;;;;87.35;55.25;;;;;;;13.05;100.00;99623.00;2034032;29;20302;-70
2022/05/07 02:03:19;;;;;;;84.57;55.53;;;;;;;13.08;100.00;99622.41;2034134;29;20274;-70
2022/05/07 02:04:20;;;;;;;85.85;56.53;;;;;;;13.09;100.00;99623.97;2041836;29;20223;-70
2022/05/07 02:05:22;;;;;;;86.37;56.30;;;;;;;13.10;100.00;99622.88;2041878;29;20191;-71
2022/05/07 02:06:23;;;;;;;87.88;56.85;;;;;;;13.12;100.00;99622.56;2033581;29;20280;-70
2022/05/07 02:07:25;;;;;;;86.75;55.92;;;;;;;13.13;100.00;99618.84;2026193;29;20200;-70
2022/05/07 02:08:28;;;;;;;92.53;57.80;;;;;;;13.11;100.00;99621.78;2034202;29;20692;-71
2022/05/07 02:09:31;;;;;;;91.47;56.55;;;;;;;13.13;100.00;99618.84;2033960;29;20191;-70
2022/05/07 02:10:33;;;;;;;81.28;55.00;;;;;;;13.12;100.00;99622.56;2034097;29;20227;-71
2022/05/07 02:11:35;;;;;;;85.43;55.22;;;;;;;13.14;100.00;99625.78;2033961;29;20207;-70
2022/05/07 02:12:39;;;;;;;84.63;54.72;;;;;;;13.15;100.00;99620.13;2034372;29;20315;-71
2022/05/07 02:13:41;;;;;;;90.25;56.83;;;;;;;13.17;100.00;99623.28;2034003;29;20258;-70
2022/05/07 02:14:44;;;;;;;88.20;57.15;;;;;;;13.14;100.00;99620.41;2026183;29;20208;-70
2022/05/07 02:15:47;;;;;;;87.90;54.60;;;;;;;13.15;100.00;99624.69;2026326;29;20200;-70
2022/05/07 02:16:50;;;;;;;86.30;56.30;;;;;;;13.15;100.00;99622.00;2026274;29;20201;-70
2022/05/07 02:17:50;;;;;;;84.32;55.05;;;;;;;13.11;100.00;99621.78;2025528;29;20204;-71
2022/05/07 02:18:52;;;;;;;80.70;54.10;;;;;;;13.13;100.00;99618.84;2025792;29;20299;-70
2022/05/07 02:19:53;;;;;;;84.53;55.40;;;;;;;13.12;100.00;99622.56;2033335;29;20749;-70
2022/05/07 02:20:59;;;;;;;81.40;54.78;;;;;;;13.14;100.00;99631.13;2040640;29;20222;-70
2022/05/07 02:21:59;;;;;;;90.07;55.47;;;;;;;13.18;100.00;99626.75;2033735;29;20184;-71
2022/05/07 02:23:01;;;;;;;88.38;56.80;;;;;;;13.19;100.00;99622.97;2026062;29;20221;-71
2022/05/07 02:24:04;;;;;;;77.50;53.78;;;;;;;13.20;100.00;99624.59;2018367;29;20201;-72
2022/05/07 02:25:08;;;;;;;84.15;54.22;;;;;;;13.17;100.00;99625.16;2018498;29;20200;-70
2022/05/07 02:26:09;;;;;;;84.20;53.72;;;;;;;13.17;100.00;99625.97;2018617;29;20232;-71
2022/05/07 02:27:16;;;;;;;86.05;53.85;;;;;;;13.18;100.00;99627.53;2018349;29;20204;-70
2022/05/07 02:28:18;;;;;;;76.35;52.05;;;;;;;13.18;100.00;99624.88;2026722;29;20291;-71
2022/05/07 02:29:23;;;;;;;83.68;53.55;;;;;;;13.19;100.00;99628.34;2025890;29;20220;-71
2022/05/07 02:30:25;;;;;;;83.10;53.90;;;;;;;13.16;100.00;99624.38;2019019;29;20340;-70
2022/05/07 02:31:27;;;;;;;88.07;53.97;;;;;;;13.13;100.00;99624.19;2033845;29;20203;-71
2022/05/07 02:32:28;;;;;;;89.30;56.17;;;;;;;13.15;100.00;99632.72;2041688;29;20274;-71
2022/05/07 02:33:30;;;;;;;95.30;58.00;;;;;;;13.16;100.00;99626.25;2033903;29;20294;-71
2022/05/07 02:34:33;;;;;;;91.40;57.80;;;;;;;13.22;100.00;99630.47;2025986;29;20207;-72
2022/05/07 02:35:39;;;;;;;93.97;56.35;;;;;;;13.14;100.00;99628.44;2025856;29;20203;-70
2022/05/07 02:36:41;;;;;;;88.88;56.80;;;;;;;13.13;100.00;99633.03;2032689;29;20717;-71
2022/05/07 02:37:43;;;;;;;89.87;57.23;;;;;;;13.12;100.00;99634.13;2033739;29;20678;-70
2022/05/07 02:38:44;;;;;;;85.90;56.38;;;;;;;13.15;100.00;99632.72;2026027;29;20204;-71
2022/05/07 02:39:50;;;;;;;88.82;57.50;;;;;;;13.16;100.00;99627.06;2033736;29;20659;-70
2022/05/07 02:43:38;;;;;;;88.32;55.83;;;;;;;13.21;100.00;99635.03;2028776;29;20693;-70
2022/05/07 02:44:44;;;;;;;82.15;52.90;;;;;;;13.17;100.00;99636.69;2034608;29;20689;-71
2022/05/07 02:45:46;;;;;;;82.00;54.30;;;;;;;13.17;100.00;99627.84;2033662;29;20317;-70
2022/05/07 02:46:47;;;;;;;84.57;55.38;;;;;;;13.18;100.00;99629.44;2025671;29;20718;-71
2022/05/07 02:47:49;;;;;;;85.43;56.37;;;;;;;13.16;100.00;99631.63;2025968;29;20576;-71
2022/05/07 02:48:55;;;;;;;77.97;54.53;;;;;;;13.11;100.00;99632.50;2026285;29;20291;-71
2022/05/07 02:49:57;;;;;;;81.78;55.10;;;;;;;13.11;100.00;99627.16;2026229;29;20618;-70
2022/05/07 02:50:58;;;;;;;80.30;54.45;;;;;;;13.12;100.00;99633.28;2033196;29;20220;-71
2022/05/07 02:52:01;;;;;;;85.53;56.87;;;;;;;13.11;100.00;99637.06;2033813;29;20274;-72
2022/05/07 02:53:03;;;;;;;80.13;54.40;;;;;;;13.10;100.00;99635.47;2025704;29;20236;-70
2022/05/07 02:54:03;;;;;;;89.38;57.13;;;;;;;13.08;100.00;99632.31;2025895;29;20220;-71
2022/05/07 02:55:12;;;;;;;81.32;53.50;;;;;;;13.05;100.00;99632.91;2026374;29;20220;-71
2022/05/07 02:56:17;;;;;;;88.95;56.85;;;;;;;13.04;100.00;99637.50;2034707;29;20203;-70
2022/05/07 02:57:23;;;;;;;92.20;54.58;;;;;;;13.04;100.00;99637.50;2040981;29;20328;-71
2022/05/07 02:58:25;;;;;;;85.72;54.08;;;;;;;13.08;100.00;99633.09;2033835;29;20200;-71
2022/05/07 02:59:26;;;;;;;81.95;53.45;;;;;;;13.06;100.00;99634.50;2041485;29;20250;-70
2022/05/07 03:00:28;;;;;;;87.30;53.90;;;;;;;13.06;100.00;99635.31;2041547;29;20199;-70
2022/05/07 03:01:29;;;;;;;87.13;56.05;;;;;;;13.07;100.00;99639.56;2034473;29;20592;-70
2022/05/07 03:02:32;;;;;;;84.68;53.92;;;;;;;13.05;100.00;99636.41;2041517;29;20278;-71
2022/05/07 03:03:34;;;;;;;86.85;55.42;;;;;;;13.08;100.00;99637.69;2033611;29;20199;-70
2022/05/07 03:04:41;;;;;;;86.72;54.90;;;;;;;13.06;100.00;99637.97;2026263;29;20211;-71
2022/05/07 03:05:42;;;;;;;84.22;54.20;;;;;;;13.05;100.00;99639.06;2025212;29;20212;-70
2022/05/07 03:06:44;;;;;;;87.93;56.95;;;;;;;13.05;100.00;99632.91;2033272;29;20247;-70
2022/05/07 03:07:44;;;;;;;97.45;56.17;;;;;;;13.07;100.00;99636.88;2033576;29;20207;-70
2022/05/07 03:08:53;;;;;;;91.25;56.40;;;;;;;13.06;100.00;99634.50;2033766;29;20240;-70
2022/05/07 03:09:54;;;;;;;86.18;57.35;;;;;;;13.02;100.00;99640.44;2033371;29;20212;-71
2022/05/07 03:10:58;;;;;;;96.18;57.05;;;;;;;13.04;100.00;99642.06;2041299;29;20761;-71
2022/05/07 03:11:59;;;;;;;91.50;57.42;;;;;;;13.02;100.00;99639.66;2041292;29;20194;-70
2022/05/07 03:13:04;;;;;;;93.53;57.75;;;;;;;13.04;100.00;99642.06;2033610;29;20203;-71
2022/05/07 03:14:06;;;;;;;87.65;55.85;;;;;;;13.05;100.00;99643.63;2026153;29;20721;-71
2022/05/07 03:15:08;;;;;;;90.38;57.03;;;;;;;13.09;100.00;99642.72;2033642;29;20192;-71
2022/05/07 03:16:09;;;;;;;94.97;59.15;;;;;;;13.07;100.00;99646.81;2041349;29;20539;-70
2022/05/07 03:17:12;;;;;;;93.78;58.65;;;;;;;13.13;100.00;99650.97;2041352;29;20245;-70
2022/05/07 03:18:14;;;;;;;91.78;58.45;;;;;;;13.13;100.00;99650.97;2040997;29;20293;-70
2022/05/07 03:19:17;;;;;;;85.25;56.58;;;;;;;13.12;100.00;99646.69;2033541;29;20199;-71
2022/05/07 03:20:18;;;;;;;85.70;56.78;;;;;;;13.13;100.00;99649.09;2025720;29;20691;-72
2022/05/07 03:21:22;;;;;;;86.95;55.92;;;;;;;13.12;100.00;99646.69;2041216;29;20239;-71
2022/05/07 03:22:22;;;;;;;85.32;56.17;;;;;;;13.22;100.00;99643.88;2048965;29;20210;-70
2022/05/07 03:23:29;;;;;;;83.03;54.50;;;;;;;13.16;100.00;99647.69;2041186;29;20373;-70
2022/05/07 03:24:43;;;;;;;82.40;55.10;;;;;;;13.14;100.00;99641.84;2043421;29;20198;-71
2022/05/07 03:25:46;;;;;;;82.72;54.53;;;;;;;13.21;100.00;99653.00;2041262;29;20199;-71
2022/05/07 03:26:50;;;;;;;82.70;54.55;;;;;;;13.21;100.00;99647.63;2033814;29;20247;-71
2022/05/07 03:27:56;;;;;;;82.70;55.25;;;;;;;13.16;100.00;99640.44;2041431;29;20603;-71
2022/05/07 03:28:58;;;;;;;82.40;55.83;;;;;;;13.26;100.00;99644.84;2041224;29;20195;-71
2022/05/07 03:30:01;;;;;;;88.40;57.15;;;;;;;13.30;100.00;99643.16;2025779;29;20239;-70
2022/05/07 03:31:10;;;;;;;90.75;57.05;;;;;;;13.29;100.00;99644.22;2026607;29;20268;-70
2022/05/07 03:32:12;;;;;;;90.38;56.63;;;;;;;13.23;100.00;99640.09;2025741;29;20240;-71
2022/05/07 03:33:14;;;;;;;85.00;57.70;;;;;;;13.25;100.00;99649.41;2033456;29;20235;-71
2022/05/07 03:34:19;;;;;;;83.40;55.85;;;;;;;13.30;100.00;99648.53;2034108;29;20196;-70
2022/05/07 03:35:20;;;;;;;88.20;58.97;;;;;;;13.26;100.00;99648.31;2033385;29;20231;-71
2022/05/07 03:36:22;;;;;;;85.20;57.90;;;;;;;13.25;100.00;99648.63;2033080;29;20219;-70
2022/05/07 03:37:26;;;;;;;88.72;57.90;;;;;;;13.32;100.00;99648.22;2033678;29;20199;-70
2022/05/07 03:38:29;;;;;;;83.35;55.95;;;;;;;13.34;100.00;99652.19;2033376;29;20638;-71
2022/05/07 03:39:44;;;;;;;86.68;57.00;;;;;;;13.31;100.00;99652.78;2034378;29;20694;-70
2022/05/07 03:40:50;;;;;;;85.80;57.63;;;;;;;13.25;100.00;99654.78;2033422;29;20250;-70
2022/05/07 03:41:54;;;;;;;89.35;57.40;;;;;;;13.26;100.00;99656.34;2025916;29;20612;-71
2022/05/07 03:42:55;;;;;;;88.82;57.65;;;;;;;13.26;100.00;99652.88;2033581;29;20594;-70
2022/05/07 03:44:04;;;;;;;88.05;55.97;;;;;;;13.25;100.00;99654.78;2041406;29;20290;-71
2022/05/07 03:45:07;;;;;;;84.97;56.17;;;;;;;13.25;100.00;99653.97;2033362;29;20319;-70
2022/05/07 03:46:13;;;;;;;86.68;57.20;;;;;;;13.22;100.00;99652.69;2033400;29;20224;-71
2022/05/07 03:47:27;;;;;;;89.20;56.78;;;;;;;13.26;100.00;99655.56;2027453;29;20204;-71
2022/05/07 03:48:29;;;;;;;86.15;56.63;;;;;;;13.31;100.00;99655.47;2025925;29;20211;-71
2022/05/07 03:49:31;;;;;;;86.78;57.95;;;;;;;13.39;100.00;99656.66;2033601;29;20263;-71
2022/05/07 03:50:32;;;;;;;85.70;57.33;;;;;;;13.37;100.00;99656.13;2033610;29;20222;-70
2022/05/07 03:54:14;;;;;;;80.60;55.20;;;;;;;13.28;100.00;99656.84;2031003;29;20211;-71
2022/05/07 03:55:16;;;;;;;86.40;58.05;;;;;;;13.30;100.00;99656.56;2033663;29;20211;-71
2022/05/07 03:56:18;;;;;;;85.78;57.67;;;;;;;13.26;100.00;99655.56;2032928;29;20210;-71
2022/05/07 03:57:20;;;;;;;82.38;55.55;;;;;;;13.26;100.00;99658.25;2025621;29;20196;-70
2022/05/07 03:58:23;;;;;;;90.78;55.38;;;;;;;13.26;100.00;99658.25;2033548;29;20227;-70
2022/05/07 03:59:26;;;;;;;84.65;56.78;;;;;;;13.28;100.00;99656.03;2026312;29;20203;-70
2022/05/07 04:00:29;;;;;;;85.90;55.67;;;;;;;13.25;100.00;99659.34;2025532;29;20260;-70
2022/05/07 04:01:32;;;;;;;85.10;56.20;;;;;;;13.24;100.00;99657.75;2018051;29;20700;-71
2022/05/07 04:02:35;;;;;;;87.37;58.27;;;;;;;13.27;100.00;99663.28;2025583;29;20205;-70
2022/05/07 04:03:38;;;;;;;88.00;57.63;;;;;;;13.28;100.00;99656.03;2018128;29;20208;-70
2022/05/07 04:04:39;;;;;;;84.00;57.70;;;;;;;13.31;100.00;99658.16;2018151;29;20212;-70
2022/05/07 04:05:46;;;;;;;83.90;54.88;;;;;;;13.32;100.00;99649.00;2033931;29;20662;-71
2022/05/07 04:06:52;;;;;;;78.78;55.15;;;;;;;13.38;100.00;99655.03;2032343;29;20332;-71
2022/05/07 04:07:54;;;;;;;86.38;57.03;;;;;;;13.38;100.00;99658.53;2025601;29;20193;-71
2022/05/07 04:08:55;;;;;;;88.30;57.27;;;;;;;13.42;100.00;99662.19;2025552;29;20205;-70
2022/05/07 04:09:56;;;;;;;82.18;54.90;;;;;;;13.45;100.00;99664.28;2018068;29;20209;-70
2022/05/07 04:11:03;;;;;;;83.55;54.88;;;;;;;13.45;100.00;99652.75;2018275;29;20247;-70
2022/05/07 04:12:06;;;;;;;79.60;54.00;;;;;;;13.45;100.00;99656.22;2018038;29;20235;-70
2022/05/07 04:13:12;;;;;;;81.55;53.13;;;;;;;13.47;100.00;99667.47;2025718;29;20275;-71
2022/05/07 04:14:14;;;;;;;82.57;55.92;;;;;;;13.44;100.00;99657.31;2033390;29;20192;-71
2022/05/07 04:15:15;;;;;;;85.78;57.05;;;;;;;13.41;100.00;99662.50;2041114;29;20210;-71
2022/05/07 04:16:17;;;;;;;84.88;55.47;;;;;;;13.48;100.00;99665.59;2033320;29;20302;-70
2022/05/07 04:17:33;;;;;;;84.65;55.55;;;;;;;13.49;100.00;99662.59;2027536;29;20208;-70
2022/05/07 04:18:38;;;;;;;79.40;54.80;;;;;;;13.51;100.00;99664.97;2025539;29;20202;-70
2022/05/07 04:19:46;;;;;;;86.15;55.38;;;;;;;13.47;100.00;99664.00;2034009;29;20211;-70
2022/05/07 04:20:48;;;;;;;81.35;55.58;;;;;;;13.48;100.00;99658.31;2032993;29;20199;-71
2022/05/07 04:21:50;;;;;;;86.45;55.08;;;;;;;13.51;100.00;99663.09;2017737;29;20321;-70
2022/05/07 04:22:57;;;;;;;82.10;55.20;;;;;;;13.49;100.00;99669.84;2026060;29;20735;-71
2022/05/07 04:23:58;;;;;;;86.80;54.50;;;;;;;13.48;100.00;99658.31;2041097;29;20206;-70
2022/05/07 04:25:00;;;;;;;82.78;54.40;;;;;;;13.55;100.00;99664.09;2033223;29;20207;-70
2022/05/07 04:26:03;;;;;;;81.70;54.83;;;;;;;13.61;100.00;99662.06;2025626;29;20700;-70
2022/05/07 04:27:09;;;;;;;87.05;55.05;;;;;;;13.61;100.00;99650.56;2025446;29;20300;-70
2022/05/07 04:28:13;;;;;;;77.03;54.53;;;;;;;13.56;100.00;99652.25;2025383;29;20201;-70
2022/05/07 04:29:17;;;;;;;83.70;53.60;;;;;;;13.57;100.00;99648.47;2018389;29;20711;-70
2022/05/07 04:30:23;;;;;;;85.75;54.83;;;;;;;13.62;100.00;99657.50;2033652;29;20227;-71
2022/05/07 04:31:25;;;;;;;78.53;54.45;;;;;;;13.57;100.00;99661.88;2040845;29;20305;-70
2022/05/07 04:32:33;;;;;;;74.93;51.92;;;;;;;13.66;100.00;99661.97;2032322;29;20270;-71
2022/05/07 04:33:39;;;;;;;79.88;53.40;;;;;;;13.73;100.00;99665.03;2018057;29;20572;-71
2022/05/07 04:34:45;;;;;;;72.57;52.10;;;;;;;13.71;100.00;99661.06;2026483;29;20209;-70
2022/05/07 04:35:48;;;;;;;75.33;50.87;;;;;;;13.92;100.00;99661.41;2025417;29;20289;-71
2022/05/07 04:36:51;;;;;;;78.07;51.58;;;;;;;13.98;100.00;99654.81;2033601;29;20290;-70
2022/05/07 04:37:53;;;;;;;72.25;50.72;;;;;;;14.06;100.00;99662.94;2041163;29;20693;-70
2022/05/07 04:38:54;;;;;;;70.03;49.63;;;;;;;14.09;100.00;99656.97;2032962;29;20263;-71
2022/05/07 04:40:09;;;;;;;71.22;49.90;;;;;;;14.13;100.00;99657.94;2033232;29;20274;-70
2022/05/07 04:41:11;;;;;;;75.95;51.05;;;;;;;14.01;100.00;99654.22;2034330;29;20239;-71
2022/05/07 04:42:13;;;;;;;76.47;51.22;;;;;;;14.08;100.00;99660.75;2048911;29;20230;-70
2022/05/07 04:43:23;;;;;;;65.03;46.83;;;;;;;14.14;100.00;99666.78;2048404;28;20650;-71
2022/05/07 04:44:24;;;;;;;68.68;49.22;;;;;;;14.11;100.00;99660.16;2034272;29;20211;-70
2022/05/07 04:45:28;;;;;;;67.63;48.10;;;;;;;14.06;100.00;99664.81;2026778;29;20348;-70
2022/05/07 04:46:42;;;;;;;66.32;47.03;;;;;;;14.06;100.00;99654.88;2028643;29;20249;-72
2022/05/07 04:47:45;;;;;;;69.95;48.58;;;;;;;14.19;100.00;99655.16;2026960;29;20200;-70
2022/05/07 04:48:55;;;;;;;64.32;46.83;;;;;;;14.21;100.00;99656.41;2028054;29;20193;-70
2022/05/07 04:49:58;;;;;;;64.95;47.22;;;;;;;14.20;100.00;99646.78;2034700;29;20589;-70
2022/05/07 04:51:06;;;;;;;59.53;46.42;;;;;;;14.34;100.00;99655.56;2042187;29;20687;-70
2022/05/07 04:52:13;;;;;;;62.60;46.17;;;;;;;14.28;100.00;99659.47;2034701;29;20188;-70
2022/05/07 04:53:16;;;;;;;66.35;45.97;;;;;;;14.26;100.00;99652.84;2034840;29;20255;-70
2022/05/07 04:54:21;;;;;;;63.83;45.38;;;;;;;14.13;100.00;99646.41;2034489;29;20214;-71
2022/05/07 04:55:24;;;;;;;57.38;43.13;;;;;;;14.08;100.00;99655.41;2027483;29;20203;-70
2022/05/07 04:56:30;;;;;;;53.63;42.00;;;;;;;14.04;100.00;99648.25;2034887;29;20219;-71